sensor_id;sensor_type;location;lat;lon;timestamp;temperature;humidity
49579;DHT22;35483;50.828;3.228;2024-03-07T00:01:55;5.60;99.90
49579;DHT22;35483;50.828;3.228;2024-03-07T00:04:21;5.60;99.90
49579;DHT22;35483;50.828;3.228;2024-03-07T00:06:46;5.50;99.90
49579;DHT22;35483;50.828;3.228;2024-03-07T00:09:14;5.50;99.90
49579;DHT22;35483;50.828;3.228;2024-03-07T00:11:40;5.50;99.90
49579;DHT22;35483;50.828;3.228;2024-03-07T00:14:06;5.50;99.90
49579;DHT22;35483;50.828;3.228;2024-03-07T00:16:35;5.40;99.90
49579;DHT22;35483;50.828;3.228;2024-03-07T00:19:01;5.40;99.90
49579;DHT22;35483;50.828;3.228;2024-03-07T00:21:26;5.40;99.90
49579;DHT22;35483;50.828;3.228;2024-03-07T00:23:52;5.30;99.90
49579;DHT22;35483;50.828;3.228;2024-03-07T00:26:19;5.30;99.90
49579;DHT22;35483;50.828;3.228;2024-03-07T00:28:45;5.30;99.90
49579;DHT22;35483;50.828;3.228;2024-03-07T00:31:11;5.30;99.90
49579;DHT22;35483;50.828;3.228;2024-03-07T00:33:36;5.30;99.90
49579;DHT22;35483;50.828;3.228;2024-03-07T00:36:02;5.30;99.90
49579;DHT22;35483;50.828;3.228;2024-03-07T00:38:28;5.20;99.90
49579;DHT22;35483;50.828;3.228;2024-03-07T00:40:54;5.20;99.90
49579;DHT22;35483;50.828;3.228;2024-03-07T00:43:19;5.20;99.90
49579;DHT22;35483;50.828;3.228;2024-03-07T00:45:45;5.20;99.90
49579;DHT22;35483;50.828;3.228;2024-03-07T00:48:16;5.20;99.90
49579;DHT22;35483;50.828;3.228;2024-03-07T00:50:42;5.20;99.90
49579;DHT22;35483;50.828;3.228;2024-03-07T00:53:09;5.20;99.90
49579;DHT22;35483;50.828;3.228;2024-03-07T00:55:34;5.10;99.90
49579;DHT22;35483;50.828;3.228;2024-03-07T00:58:00;5.20;99.90
49579;DHT22;35483;50.828;3.228;2024-03-07T01:00:26;5.20;99.90
49579;DHT22;35483;50.828;3.228;2024-03-07T01:02:53;5.20;99.90
49579;DHT22;35483;50.828;3.228;2024-03-07T01:05:20;5.30;99.90
49579;DHT22;35483;50.828;3.228;2024-03-07T01:07:46;5.30;99.90
49579;DHT22;35483;50.828;3.228;2024-03-07T01:10:15;5.40;99.90
49579;DHT22;35483;50.828;3.228;2024-03-07T01:12:41;5.40;99.90
49579;DHT22;35483;50.828;3.228;2024-03-07T01:15:08;5.40;99.90
49579;DHT22;35483;50.828;3.228;2024-03-07T01:17:35;5.50;99.90
49579;DHT22;35483;50.828;3.228;2024-03-07T01:20:01;5.60;99.90
49579;DHT22;35483;50.828;3.228;2024-03-07T01:22:28;5.70;99.90
49579;DHT22;35483;50.828;3.228;2024-03-07T01:24:53;5.70;99.90
49579;DHT22;35483;50.828;3.228;2024-03-07T01:27:20;5.80;99.90
49579;DHT22;35483;50.828;3.228;2024-03-07T01:29:46;5.90;99.90
49579;DHT22;35483;50.828;3.228;2024-03-07T01:32:12;6.00;99.90
49579;DHT22;35483;50.828;3.228;2024-03-07T01:34:38;6.10;99.90
49579;DHT22;35483;50.828;3.228;2024-03-07T01:37:04;6.10;99.90
49579;DHT22;35483;50.828;3.228;2024-03-07T01:39:29;6.10;99.90
49579;DHT22;35483;50.828;3.228;2024-03-07T01:41:55;6.20;99.90
49579;DHT22;35483;50.828;3.228;2024-03-07T01:44:21;6.20;99.90
49579;DHT22;35483;50.828;3.228;2024-03-07T01:46:47;6.20;99.90
49579;DHT22;35483;50.828;3.228;2024-03-07T01:49:16;6.30;99.90
49579;DHT22;35483;50.828;3.228;2024-03-07T01:51:42;6.30;99.90
49579;DHT22;35483;50.828;3.228;2024-03-07T01:54:09;6.30;99.90
49579;DHT22;35483;50.828;3.228;2024-03-07T01:56:36;6.30;99.90
49579;DHT22;35483;50.828;3.228;2024-03-07T01:59:03;6.30;99.90
49579;DHT22;35483;50.828;3.228;2024-03-07T02:01:31;6.30;99.90
49579;DHT22;35483;50.828;3.228;2024-03-07T02:03:57;6.30;99.90
49579;DHT22;35483;50.828;3.228;2024-03-07T02:06:23;6.30;99.90
49579;DHT22;35483;50.828;3.228;2024-03-07T02:08:49;6.30;99.90
49579;DHT22;35483;50.828;3.228;2024-03-07T02:11:15;6.30;99.90
49579;DHT22;35483;50.828;3.228;2024-03-07T02:13:41;6.30;99.90
49579;DHT22;35483;50.828;3.228;2024-03-07T02:16:07;6.30;99.90
49579;DHT22;35483;50.828;3.228;2024-03-07T02:18:35;6.20;99.90
49579;DHT22;35483;50.828;3.228;2024-03-07T02:21:09;6.20;99.90
49579;DHT22;35483;50.828;3.228;2024-03-07T02:23:35;6.10;99.90
49579;DHT22;35483;50.828;3.228;2024-03-07T02:26:00;6.10;99.90
49579;DHT22;35483;50.828;3.228;2024-03-07T02:28:26;6.00;99.90
49579;DHT22;35483;50.828;3.228;2024-03-07T02:30:52;6.00;99.90
49579;DHT22;35483;50.828;3.228;2024-03-07T02:33:19;6.00;99.90
49579;DHT22;35483;50.828;3.228;2024-03-07T02:35:45;6.00;99.90
49579;DHT22;35483;50.828;3.228;2024-03-07T02:38:11;5.90;99.90
49579;DHT22;35483;50.828;3.228;2024-03-07T02:40:36;5.90;99.90
49579;DHT22;35483;50.828;3.228;2024-03-07T02:43:02;5.90;99.90
49579;DHT22;35483;50.828;3.228;2024-03-07T02:45:31;5.80;99.90
49579;DHT22;35483;50.828;3.228;2024-03-07T02:47:57;5.80;99.90
49579;DHT22;35483;50.828;3.228;2024-03-07T02:50:23;5.80;99.90
49579;DHT22;35483;50.828;3.228;2024-03-07T02:52:49;5.80;99.90
49579;DHT22;35483;50.828;3.228;2024-03-07T02:55:16;5.80;99.90
49579;DHT22;35483;50.828;3.228;2024-03-07T02:57:41;5.80;99.90
49579;DHT22;35483;50.828;3.228;2024-03-07T03:00:08;5.70;99.90
49579;DHT22;35483;50.828;3.228;2024-03-07T03:02:46;5.70;99.90
49579;DHT22;35483;50.828;3.228;2024-03-07T03:05:13;5.70;99.90
49579;DHT22;35483;50.828;3.228;2024-03-07T03:07:40;5.70;99.90
49579;DHT22;35483;50.828;3.228;2024-03-07T03:10:06;5.70;99.90
49579;DHT22;35483;50.828;3.228;2024-03-07T03:12:37;5.70;99.90
49579;DHT22;35483;50.828;3.228;2024-03-07T03:15:07;5.70;99.90
49579;DHT22;35483;50.828;3.228;2024-03-07T03:17:35;5.60;99.90
49579;DHT22;35483;50.828;3.228;2024-03-07T03:20:01;5.70;99.90
49579;DHT22;35483;50.828;3.228;2024-03-07T03:22:26;5.70;99.90
49579;DHT22;35483;50.828;3.228;2024-03-07T03:24:52;5.60;99.90
49579;DHT22;35483;50.828;3.228;2024-03-07T03:27:21;5.60;99.90
49579;DHT22;35483;50.828;3.228;2024-03-07T03:29:47;5.60;99.90
49579;DHT22;35483;50.828;3.228;2024-03-07T03:32:13;5.60;99.90
49579;DHT22;35483;50.828;3.228;2024-03-07T03:34:39;5.60;99.90
49579;DHT22;35483;50.828;3.228;2024-03-07T03:37:07;5.50;99.90
49579;DHT22;35483;50.828;3.228;2024-03-07T03:39:34;5.50;99.90
49579;DHT22;35483;50.828;3.228;2024-03-07T03:42:01;5.50;99.90
49579;DHT22;35483;50.828;3.228;2024-03-07T03:44:27;5.50;99.90
49579;DHT22;35483;50.828;3.228;2024-03-07T03:46:53;5.50;99.90
49579;DHT22;35483;50.828;3.228;2024-03-07T03:49:19;5.50;99.90
49579;DHT22;35483;50.828;3.228;2024-03-07T03:51:45;5.50;99.90
49579;DHT22;35483;50.828;3.228;2024-03-07T03:54:11;5.50;99.90
49579;DHT22;35483;50.828;3.228;2024-03-07T03:56:37;5.50;99.90
49579;DHT22;35483;50.828;3.228;2024-03-07T03:59:05;5.50;99.90
49579;DHT22;35483;50.828;3.228;2024-03-07T04:01:32;5.50;99.90
49579;DHT22;35483;50.828;3.228;2024-03-07T04:03:57;5.50;99.90
49579;DHT22;35483;50.828;3.228;2024-03-07T04:06:23;5.50;99.90
49579;DHT22;35483;50.828;3.228;2024-03-07T04:08:49;5.50;99.90
49579;DHT22;35483;50.828;3.228;2024-03-07T04:11:15;5.50;99.90
49579;DHT22;35483;50.828;3.228;2024-03-07T04:13:40;5.50;99.90
49579;DHT22;35483;50.828;3.228;2024-03-07T04:16:06;5.40;99.90
49579;DHT22;35483;50.828;3.228;2024-03-07T04:18:32;5.40;99.90
49579;DHT22;35483;50.828;3.228;2024-03-07T04:20:57;5.40;99.90
49579;DHT22;35483;50.828;3.228;2024-03-07T04:23:24;5.30;99.90
49579;DHT22;35483;50.828;3.228;2024-03-07T04:25:49;5.40;99.90
49579;DHT22;35483;50.828;3.228;2024-03-07T04:28:17;5.40;99.90
49579;DHT22;35483;50.828;3.228;2024-03-07T04:30:42;5.30;99.90
49579;DHT22;35483;50.828;3.228;2024-03-07T04:33:08;5.40;99.90
49579;DHT22;35483;50.828;3.228;2024-03-07T04:35:34;5.30;99.90
49579;DHT22;35483;50.828;3.228;2024-03-07T04:37:59;5.30;99.90
49579;DHT22;35483;50.828;3.228;2024-03-07T04:40:25;5.30;99.90
49579;DHT22;35483;50.828;3.228;2024-03-07T04:42:51;5.30;99.90
49579;DHT22;35483;50.828;3.228;2024-03-07T04:45:17;5.30;99.90
49579;DHT22;35483;50.828;3.228;2024-03-07T04:47:44;5.30;99.90
49579;DHT22;35483;50.828;3.228;2024-03-07T04:50:10;5.30;99.90
49579;DHT22;35483;50.828;3.228;2024-03-07T04:52:38;5.20;99.90
49579;DHT22;35483;50.828;3.228;2024-03-07T04:55:08;5.20;99.90
49579;DHT22;35483;50.828;3.228;2024-03-07T04:57:39;5.20;99.90
49579;DHT22;35483;50.828;3.228;2024-03-07T05:00:09;5.20;99.90
49579;DHT22;35483;50.828;3.228;2024-03-07T05:02:46;5.20;99.90
49579;DHT22;35483;50.828;3.228;2024-03-07T05:05:12;5.20;99.90
49579;DHT22;35483;50.828;3.228;2024-03-07T05:07:38;5.20;99.90
49579;DHT22;35483;50.828;3.228;2024-03-07T05:10:06;5.20;99.90
49579;DHT22;35483;50.828;3.228;2024-03-07T05:12:33;5.20;99.90
49579;DHT22;35483;50.828;3.228;2024-03-07T05:14:59;5.20;99.90
49579;DHT22;35483;50.828;3.228;2024-03-07T05:17:25;5.20;99.90
49579;DHT22;35483;50.828;3.228;2024-03-07T05:19:50;5.20;99.90
49579;DHT22;35483;50.828;3.228;2024-03-07T05:22:16;5.10;99.90
49579;DHT22;35483;50.828;3.228;2024-03-07T05:24:43;5.20;99.90
49579;DHT22;35483;50.828;3.228;2024-03-07T05:27:09;5.20;99.90
49579;DHT22;35483;50.828;3.228;2024-03-07T05:29:38;5.10;99.90
49579;DHT22;35483;50.828;3.228;2024-03-07T05:32:24;5.10;99.90
49579;DHT22;35483;50.828;3.228;2024-03-07T05:34:53;5.20;99.90
49579;DHT22;35483;50.828;3.228;2024-03-07T05:37:20;5.10;99.90
49579;DHT22;35483;50.828;3.228;2024-03-07T05:39:48;5.10;99.90
49579;DHT22;35483;50.828;3.228;2024-03-07T05:42:13;5.10;99.90
49579;DHT22;35483;50.828;3.228;2024-03-07T05:44:44;5.10;99.90
49579;DHT22;35483;50.828;3.228;2024-03-07T05:47:10;5.10;99.90
49579;DHT22;35483;50.828;3.228;2024-03-07T05:49:36;5.10;99.90
49579;DHT22;35483;50.828;3.228;2024-03-07T05:52:03;5.10;99.90
49579;DHT22;35483;50.828;3.228;2024-03-07T05:54:29;5.10;99.90
49579;DHT22;35483;50.828;3.228;2024-03-07T05:56:55;5.10;99.90
49579;DHT22;35483;50.828;3.228;2024-03-07T05:59:20;5.10;99.90
49579;DHT22;35483;50.828;3.228;2024-03-07T06:01:46;5.10;99.90
49579;DHT22;35483;50.828;3.228;2024-03-07T06:04:13;5.10;99.90
49579;DHT22;35483;50.828;3.228;2024-03-07T06:06:41;5.10;99.90
49579;DHT22;35483;50.828;3.228;2024-03-07T06:09:10;5.10;99.90
49579;DHT22;35483;50.828;3.228;2024-03-07T06:11:39;5.10;99.90
49579;DHT22;35483;50.828;3.228;2024-03-07T06:14:08;5.10;99.90
49579;DHT22;35483;50.828;3.228;2024-03-07T06:16:36;5.10;99.90
49579;DHT22;35483;50.828;3.228;2024-03-07T06:19:04;5.10;99.90
49579;DHT22;35483;50.828;3.228;2024-03-07T06:21:34;5.10;99.90
49579;DHT22;35483;50.828;3.228;2024-03-07T06:24:00;5.10;99.90
49579;DHT22;35483;50.828;3.228;2024-03-07T06:26:30;5.10;99.90
49579;DHT22;35483;50.828;3.228;2024-03-07T06:29:17;5.10;99.90
49579;DHT22;35483;50.828;3.228;2024-03-07T06:31:44;5.10;99.90
49579;DHT22;35483;50.828;3.228;2024-03-07T06:34:13;5.10;99.90
49579;DHT22;35483;50.828;3.228;2024-03-07T06:36:39;5.20;99.90
49579;DHT22;35483;50.828;3.228;2024-03-07T06:39:06;5.10;99.90
49579;DHT22;35483;50.828;3.228;2024-03-07T06:41:33;5.20;99.90
49579;DHT22;35483;50.828;3.228;2024-03-07T06:43:59;5.20;99.90
49579;DHT22;35483;50.828;3.228;2024-03-07T06:46:25;5.20;99.90
49579;DHT22;35483;50.828;3.228;2024-03-07T06:48:51;5.30;99.90
49579;DHT22;35483;50.828;3.228;2024-03-07T06:51:17;5.30;99.90
49579;DHT22;35483;50.828;3.228;2024-03-07T06:53:43;5.30;99.90
49579;DHT22;35483;50.828;3.228;2024-03-07T06:56:11;5.30;99.90
49579;DHT22;35483;50.828;3.228;2024-03-07T06:58:38;5.40;99.90
49579;DHT22;35483;50.828;3.228;2024-03-07T07:01:04;5.40;99.90
49579;DHT22;35483;50.828;3.228;2024-03-07T07:03:32;5.40;99.90
49579;DHT22;35483;50.828;3.228;2024-03-07T07:05:58;5.50;99.90
49579;DHT22;35483;50.828;3.228;2024-03-07T07:08:24;5.50;99.90
49579;DHT22;35483;50.828;3.228;2024-03-07T07:10:50;5.50;99.90
49579;DHT22;35483;50.828;3.228;2024-03-07T07:13:15;5.50;99.90
49579;DHT22;35483;50.828;3.228;2024-03-07T07:15:42;5.60;99.90
49579;DHT22;35483;50.828;3.228;2024-03-07T07:18:08;5.60;99.90
49579;DHT22;35483;50.828;3.228;2024-03-07T07:20:35;5.70;99.90
49579;DHT22;35483;50.828;3.228;2024-03-07T07:23:01;5.70;99.90
49579;DHT22;35483;50.828;3.228;2024-03-07T07:25:29;5.70;99.90
49579;DHT22;35483;50.828;3.228;2024-03-07T07:27:56;5.80;99.90
49579;DHT22;35483;50.828;3.228;2024-03-07T07:30:23;5.80;99.90
49579;DHT22;35483;50.828;3.228;2024-03-07T07:32:50;5.90;99.90
49579;DHT22;35483;50.828;3.228;2024-03-07T07:35:17;5.90;99.90
49579;DHT22;35483;50.828;3.228;2024-03-07T07:37:45;6.00;99.90
49579;DHT22;35483;50.828;3.228;2024-03-07T07:40:16;6.00;99.90
49579;DHT22;35483;50.828;3.228;2024-03-07T07:42:48;6.00;99.90
49579;DHT22;35483;50.828;3.228;2024-03-07T07:45:15;6.10;99.90
49579;DHT22;35483;50.828;3.228;2024-03-07T07:47:51;6.10;99.90
49579;DHT22;35483;50.828;3.228;2024-03-07T07:50:21;6.20;99.90
49579;DHT22;35483;50.828;3.228;2024-03-07T07:52:55;6.10;99.90
49579;DHT22;35483;50.828;3.228;2024-03-07T07:55:28;6.20;99.90
49579;DHT22;35483;50.828;3.228;2024-03-07T07:57:58;6.20;99.90
49579;DHT22;35483;50.828;3.228;2024-03-07T08:00:25;6.30;99.90
49579;DHT22;35483;50.828;3.228;2024-03-07T08:03:06;6.30;99.90
49579;DHT22;35483;50.828;3.228;2024-03-07T08:05:35;6.40;99.90
49579;DHT22;35483;50.828;3.228;2024-03-07T08:08:08;6.40;99.90
49579;DHT22;35483;50.828;3.228;2024-03-07T08:10:37;6.50;99.90
49579;DHT22;35483;50.828;3.228;2024-03-07T08:13:05;6.40;99.90
49579;DHT22;35483;50.828;3.228;2024-03-07T08:15:39;6.50;99.90
49579;DHT22;35483;50.828;3.228;2024-03-07T08:18:05;6.50;99.90
49579;DHT22;35483;50.828;3.228;2024-03-07T08:20:37;6.50;99.90
49579;DHT22;35483;50.828;3.228;2024-03-07T08:23:04;6.60;99.90
49579;DHT22;35483;50.828;3.228;2024-03-07T08:25:30;6.60;99.90
49579;DHT22;35483;50.828;3.228;2024-03-07T08:27:59;6.60;99.90
49579;DHT22;35483;50.828;3.228;2024-03-07T08:30:25;6.60;99.90
49579;DHT22;35483;50.828;3.228;2024-03-07T08:32:55;6.70;99.90
49579;DHT22;35483;50.828;3.228;2024-03-07T08:35:21;6.70;99.90
49579;DHT22;35483;50.828;3.228;2024-03-07T08:37:49;6.80;99.90
49579;DHT22;35483;50.828;3.228;2024-03-07T08:40:19;6.80;99.90
49579;DHT22;35483;50.828;3.228;2024-03-07T08:42:49;6.90;99.90
49579;DHT22;35483;50.828;3.228;2024-03-07T08:45:19;6.90;99.90
49579;DHT22;35483;50.828;3.228;2024-03-07T08:47:49;6.90;99.90
49579;DHT22;35483;50.828;3.228;2024-03-07T08:50:18;7.00;99.90
49579;DHT22;35483;50.828;3.228;2024-03-07T08:52:48;7.00;99.90
49579;DHT22;35483;50.828;3.228;2024-03-07T08:55:15;7.10;99.90
49579;DHT22;35483;50.828;3.228;2024-03-07T08:57:43;7.10;99.90
49579;DHT22;35483;50.828;3.228;2024-03-07T09:00:12;7.10;99.90
49579;DHT22;35483;50.828;3.228;2024-03-07T09:02:51;7.10;99.90
49579;DHT22;35483;50.828;3.228;2024-03-07T09:05:18;7.20;99.90
49579;DHT22;35483;50.828;3.228;2024-03-07T09:07:45;7.20;99.90
49579;DHT22;35483;50.828;3.228;2024-03-07T09:10:12;7.30;99.90
49579;DHT22;35483;50.828;3.228;2024-03-07T09:12:40;7.30;99.90
49579;DHT22;35483;50.828;3.228;2024-03-07T09:15:06;7.30;99.90
49579;DHT22;35483;50.828;3.228;2024-03-07T09:17:32;7.40;99.90
49579;DHT22;35483;50.828;3.228;2024-03-07T09:19:58;7.40;99.90
49579;DHT22;35483;50.828;3.228;2024-03-07T09:22:24;7.50;99.90
49579;DHT22;35483;50.828;3.228;2024-03-07T09:24:49;7.50;99.90
49579;DHT22;35483;50.828;3.228;2024-03-07T09:27:15;7.60;99.90
49579;DHT22;35483;50.828;3.228;2024-03-07T09:29:41;7.60;99.90
49579;DHT22;35483;50.828;3.228;2024-03-07T09:32:07;7.60;99.90
49579;DHT22;35483;50.828;3.228;2024-03-07T09:34:36;7.70;99.90
49579;DHT22;35483;50.828;3.228;2024-03-07T09:37:02;7.70;99.90
49579;DHT22;35483;50.828;3.228;2024-03-07T09:39:28;7.80;99.90
49579;DHT22;35483;50.828;3.228;2024-03-07T09:41:57;7.80;99.90
49579;DHT22;35483;50.828;3.228;2024-03-07T09:44:25;7.80;99.90
49579;DHT22;35483;50.828;3.228;2024-03-07T09:46:55;7.80;99.90
49579;DHT22;35483;50.828;3.228;2024-03-07T09:49:21;7.90;99.90
49579;DHT22;35483;50.828;3.228;2024-03-07T09:51:51;7.90;99.90
49579;DHT22;35483;50.828;3.228;2024-03-07T09:54:22;8.00;99.90
49579;DHT22;35483;50.828;3.228;2024-03-07T09:56:59;8.00;99.90
49579;DHT22;35483;50.828;3.228;2024-03-07T09:59:28;8.10;99.90
49579;DHT22;35483;50.828;3.228;2024-03-07T10:01:57;8.10;99.90
49579;DHT22;35483;50.828;3.228;2024-03-07T10:04:47;8.20;99.90
49579;DHT22;35483;50.828;3.228;2024-03-07T10:07:15;8.20;99.90
49579;DHT22;35483;50.828;3.228;2024-03-07T10:09:42;8.30;99.90
49579;DHT22;35483;50.828;3.228;2024-03-07T10:12:08;8.30;99.90
49579;DHT22;35483;50.828;3.228;2024-03-07T10:14:56;8.30;99.90
49579;DHT22;35483;50.828;3.228;2024-03-07T10:17:24;8.40;99.90
49579;DHT22;35483;50.828;3.228;2024-03-07T10:19:54;8.40;99.90
49579;DHT22;35483;50.828;3.228;2024-03-07T10:22:21;8.50;99.90
49579;DHT22;35483;50.828;3.228;2024-03-07T10:24:52;8.50;99.90
49579;DHT22;35483;50.828;3.228;2024-03-07T10:27:21;8.60;99.90
49579;DHT22;35483;50.828;3.228;2024-03-07T10:29:47;8.60;99.90
49579;DHT22;35483;50.828;3.228;2024-03-07T10:32:19;8.70;99.90
49579;DHT22;35483;50.828;3.228;2024-03-07T10:34:45;8.70;99.90
49579;DHT22;35483;50.828;3.228;2024-03-07T10:37:13;8.70;99.90
49579;DHT22;35483;50.828;3.228;2024-03-07T10:39:43;8.80;99.90
49579;DHT22;35483;50.828;3.228;2024-03-07T10:42:13;8.80;99.90
49579;DHT22;35483;50.828;3.228;2024-03-07T10:44:43;8.90;99.90
49579;DHT22;35483;50.828;3.228;2024-03-07T10:47:18;8.90;99.90
49579;DHT22;35483;50.828;3.228;2024-03-07T10:50:14;9.00;99.90
49579;DHT22;35483;50.828;3.228;2024-03-07T10:55:33;9.00;99.90
49579;DHT22;35483;50.828;3.228;2024-03-07T10:58:02;9.10;99.90
49579;DHT22;35483;50.828;3.228;2024-03-07T11:00:33;9.00;99.90
49579;DHT22;35483;50.828;3.228;2024-03-07T11:03:02;9.10;99.90
49579;DHT22;35483;50.828;3.228;2024-03-07T11:05:34;9.10;99.90
49579;DHT22;35483;50.828;3.228;2024-03-07T11:08:01;9.10;99.90
49579;DHT22;35483;50.828;3.228;2024-03-07T11:10:37;9.20;99.90
49579;DHT22;35483;50.828;3.228;2024-03-07T11:13:08;9.30;99.90
49579;DHT22;35483;50.828;3.228;2024-03-07T11:15:44;9.30;99.90
49579;DHT22;35483;50.828;3.228;2024-03-07T11:18:11;9.40;99.90
49579;DHT22;35483;50.828;3.228;2024-03-07T11:20:39;9.40;99.90
49579;DHT22;35483;50.828;3.228;2024-03-07T11:23:27;9.40;99.90
49579;DHT22;35483;50.828;3.228;2024-03-07T11:26:09;9.50;99.90
49579;DHT22;35483;50.828;3.228;2024-03-07T11:28:40;9.50;99.90
49579;DHT22;35483;50.828;3.228;2024-03-07T11:31:26;9.50;99.90
49579;DHT22;35483;50.828;3.228;2024-03-07T11:34:15;9.60;99.90
49579;DHT22;35483;50.828;3.228;2024-03-07T11:36:48;9.60;99.90
49579;DHT22;35483;50.828;3.228;2024-03-07T11:39:49;9.70;99.90
49579;DHT22;35483;50.828;3.228;2024-03-07T11:42:29;9.70;99.90
49579;DHT22;35483;50.828;3.228;2024-03-07T11:44:57;9.70;99.90
49579;DHT22;35483;50.828;3.228;2024-03-07T11:47:35;9.80;99.90
49579;DHT22;35483;50.828;3.228;2024-03-07T11:50:06;9.80;99.90
49579;DHT22;35483;50.828;3.228;2024-03-07T11:52:40;9.80;99.90
49579;DHT22;35483;50.828;3.228;2024-03-07T11:55:09;9.90;99.90
49579;DHT22;35483;50.828;3.228;2024-03-07T11:57:36;9.90;99.90
49579;DHT22;35483;50.828;3.228;2024-03-07T12:00:03;10.00;99.90
49579;DHT22;35483;50.828;3.228;2024-03-07T12:02:37;10.00;99.90
49579;DHT22;35483;50.828;3.228;2024-03-07T12:05:06;10.10;99.90
49579;DHT22;35483;50.828;3.228;2024-03-07T12:07:32;10.10;99.90
49579;DHT22;35483;50.828;3.228;2024-03-07T12:09:59;10.20;99.90
49579;DHT22;35483;50.828;3.228;2024-03-07T12:12:29;10.20;99.90
49579;DHT22;35483;50.828;3.228;2024-03-07T12:14:55;10.30;99.90
49579;DHT22;35483;50.828;3.228;2024-03-07T12:17:22;10.30;99.90
49579;DHT22;35483;50.828;3.228;2024-03-07T12:19:48;10.40;99.90
49579;DHT22;35483;50.828;3.228;2024-03-07T12:22:21;10.40;99.90
49579;DHT22;35483;50.828;3.228;2024-03-07T12:25:04;10.40;99.90
49579;DHT22;35483;50.828;3.228;2024-03-07T12:27:33;10.50;99.90
49579;DHT22;35483;50.828;3.228;2024-03-07T12:29:59;10.50;99.90
49579;DHT22;35483;50.828;3.228;2024-03-07T12:32:51;10.50;99.90
49579;DHT22;35483;50.828;3.228;2024-03-07T12:35:17;10.60;99.90
49579;DHT22;35483;50.828;3.228;2024-03-07T12:37:44;10.60;99.90
49579;DHT22;35483;50.828;3.228;2024-03-07T12:40:12;10.60;99.90
49579;DHT22;35483;50.828;3.228;2024-03-07T12:42:46;10.60;99.90
49579;DHT22;35483;50.828;3.228;2024-03-07T12:45:12;10.70;99.90
49579;DHT22;35483;50.828;3.228;2024-03-07T12:47:43;10.70;99.90
49579;DHT22;35483;50.828;3.228;2024-03-07T12:50:09;10.80;99.90
49579;DHT22;35483;50.828;3.228;2024-03-07T12:52:36;10.80;99.90
49579;DHT22;35483;50.828;3.228;2024-03-07T12:55:03;10.90;99.90
49579;DHT22;35483;50.828;3.228;2024-03-07T12:57:31;10.90;99.90
49579;DHT22;35483;50.828;3.228;2024-03-07T12:59:57;10.90;99.90
49579;DHT22;35483;50.828;3.228;2024-03-07T13:02:23;11.00;99.90
49579;DHT22;35483;50.828;3.228;2024-03-07T13:04:53;11.10;99.90
49579;DHT22;35483;50.828;3.228;2024-03-07T13:07:18;11.10;99.90
49579;DHT22;35483;50.828;3.228;2024-03-07T13:09:44;11.20;99.90
49579;DHT22;35483;50.828;3.228;2024-03-07T13:12:10;11.20;99.90
49579;DHT22;35483;50.828;3.228;2024-03-07T13:14:36;11.30;99.90
49579;DHT22;35483;50.828;3.228;2024-03-07T13:17:04;11.40;99.90
49579;DHT22;35483;50.828;3.228;2024-03-07T13:19:32;11.50;99.90
49579;DHT22;35483;50.828;3.228;2024-03-07T13:21:57;11.60;99.90
49579;DHT22;35483;50.828;3.228;2024-03-07T13:24:25;11.70;99.90
49579;DHT22;35483;50.828;3.228;2024-03-07T13:26:52;11.60;99.90
49579;DHT22;35483;50.828;3.228;2024-03-07T13:29:20;11.60;99.90
49579;DHT22;35483;50.828;3.228;2024-03-07T13:31:52;11.60;99.90
49579;DHT22;35483;50.828;3.228;2024-03-07T13:34:21;11.60;99.90
49579;DHT22;35483;50.828;3.228;2024-03-07T13:36:47;11.60;99.90
49579;DHT22;35483;50.828;3.228;2024-03-07T13:39:13;11.60;99.90
49579;DHT22;35483;50.828;3.228;2024-03-07T13:41:42;11.60;99.90
49579;DHT22;35483;50.828;3.228;2024-03-07T13:44:08;11.60;99.90
49579;DHT22;35483;50.828;3.228;2024-03-07T13:46:35;11.60;99.90
49579;DHT22;35483;50.828;3.228;2024-03-07T13:49:01;11.60;99.90
49579;DHT22;35483;50.828;3.228;2024-03-07T13:51:41;11.50;99.90
49579;DHT22;35483;50.828;3.228;2024-03-07T13:54:21;11.50;99.90
49579;DHT22;35483;50.828;3.228;2024-03-07T14:05:27;11.60;99.90
49579;DHT22;35483;50.828;3.228;2024-03-07T14:27:57;11.50;99.90
49579;DHT22;35483;50.828;3.228;2024-03-07T14:30:53;11.40;99.90
49579;DHT22;35483;50.828;3.228;2024-03-07T14:33:54;11.40;99.90
49579;DHT22;35483;50.828;3.228;2024-03-07T14:36:40;11.30;99.90
49579;DHT22;35483;50.828;3.228;2024-03-07T14:39:10;11.30;99.90
49579;DHT22;35483;50.828;3.228;2024-03-07T14:42:01;11.40;99.90
49579;DHT22;35483;50.828;3.228;2024-03-07T14:44:28;11.40;99.90
49579;DHT22;35483;50.828;3.228;2024-03-07T14:47:05;11.40;99.90
49579;DHT22;35483;50.828;3.228;2024-03-07T14:49:32;11.40;99.90
49579;DHT22;35483;50.828;3.228;2024-03-07T14:51:58;11.40;99.90
49579;DHT22;35483;50.828;3.228;2024-03-07T14:54:24;11.40;99.90
49579;DHT22;35483;50.828;3.228;2024-03-07T14:56:50;11.30;99.90
49579;DHT22;35483;50.828;3.228;2024-03-07T14:59:17;11.30;99.90
49579;DHT22;35483;50.828;3.228;2024-03-07T15:01:44;11.30;99.90
49579;DHT22;35483;50.828;3.228;2024-03-07T15:04:10;11.30;99.90
49579;DHT22;35483;50.828;3.228;2024-03-07T15:06:38;11.30;99.90
49579;DHT22;35483;50.828;3.228;2024-03-07T15:09:04;11.20;99.90
49579;DHT22;35483;50.828;3.228;2024-03-07T15:11:36;11.20;99.90
49579;DHT22;35483;50.828;3.228;2024-03-07T15:14:08;11.20;99.90
49579;DHT22;35483;50.828;3.228;2024-03-07T15:16:35;11.20;99.90
49579;DHT22;35483;50.828;3.228;2024-03-07T15:19:03;11.20;99.90
49579;DHT22;35483;50.828;3.228;2024-03-07T15:21:29;11.30;99.90
49579;DHT22;35483;50.828;3.228;2024-03-07T15:23:56;11.30;99.90
49579;DHT22;35483;50.828;3.228;2024-03-07T15:26:22;11.30;99.90
49579;DHT22;35483;50.828;3.228;2024-03-07T15:28:53;11.30;99.90
49579;DHT22;35483;50.828;3.228;2024-03-07T15:31:20;11.30;99.90
49579;DHT22;35483;50.828;3.228;2024-03-07T15:33:47;11.20;99.90
49579;DHT22;35483;50.828;3.228;2024-03-07T15:36:16;11.20;99.90
49579;DHT22;35483;50.828;3.228;2024-03-07T15:38:43;11.20;99.90
49579;DHT22;35483;50.828;3.228;2024-03-07T15:41:09;11.10;99.90
49579;DHT22;35483;50.828;3.228;2024-03-07T15:43:37;11.10;99.90
49579;DHT22;35483;50.828;3.228;2024-03-07T15:46:03;11.10;99.90
49579;DHT22;35483;50.828;3.228;2024-03-07T15:48:30;11.10;99.90
49579;DHT22;35483;50.828;3.228;2024-03-07T15:50:56;11.00;99.90
49579;DHT22;35483;50.828;3.228;2024-03-07T15:53:25;11.00;99.90
49579;DHT22;35483;50.828;3.228;2024-03-07T15:55:51;10.90;99.90
49579;DHT22;35483;50.828;3.228;2024-03-07T15:58:17;10.90;99.90
49579;DHT22;35483;50.828;3.228;2024-03-07T16:00:43;10.90;99.90
49579;DHT22;35483;50.828;3.228;2024-03-07T16:03:12;10.80;99.90
49579;DHT22;35483;50.828;3.228;2024-03-07T16:05:40;10.80;99.90
49579;DHT22;35483;50.828;3.228;2024-03-07T16:08:09;10.70;99.90
49579;DHT22;35483;50.828;3.228;2024-03-07T16:10:36;10.70;99.90
49579;DHT22;35483;50.828;3.228;2024-03-07T16:13:10;10.70;99.90
49579;DHT22;35483;50.828;3.228;2024-03-07T16:15:38;10.60;99.90
49579;DHT22;35483;50.828;3.228;2024-03-07T16:18:04;10.60;99.90
49579;DHT22;35483;50.828;3.228;2024-03-07T16:20:32;10.50;99.90
49579;DHT22;35483;50.828;3.228;2024-03-07T16:23:01;10.50;99.90